Time;durP1;ratioP1;P1;durP2;ratioP2;P2;SDS_P1;SDS_P2;PMS_P1;PMS_P2;Temp;Humidity;BMP_temperature;BMP_pressure;BME280_temperature;BME280_humidity;BME280_pressure;Samples;Min_cycle;Max_cycle;Signal;HPM_P1;HPM_P2
2024/01/06 00:02:05;;;;;;;8.43;5.30;;;12.80;58.40;;;;;;4969659;28;20222;-64
2024/01/06 00:04:31;;;;;;;5.63;5.10;;;12.80;58.20;;;;;;4970882;28;20865;-64
2024/01/06 00:06:57;;;;;;;8.23;5.40;;;12.90;58.20;;;;;;4969836;28;20234;-64
2024/01/06 00:09:23;;;;;;;10.30;4.80;;;12.90;58.10;;;;;;4970425;28;20855;-65
2024/01/06 00:11:48;;;;;;;5.43;4.93;;;12.80;58.30;;;;;;4971257;28;20666;-64
2024/01/06 00:14:14;;;;;;;10.00;5.60;;;12.80;58.00;;;;;;4969855;28;20222;-64
2024/01/06 00:16:39;;;;;;;8.37;6.90;;;12.80;57.90;;;;;;4983771;28;20206;-64
2024/01/06 00:19:05;;;;;;;9.50;6.63;;;12.80;58.50;;;;;;4968389;28;20671;-63
2024/01/06 00:21:31;;;;;;;8.37;7.47;;;12.80;58.00;;;;;;4965727;28;20180;-64
2024/01/06 00:23:56;;;;;;;10.83;9.30;;;12.80;58.10;;;;;;4970103;28;20245;-64
2024/01/06 00:26:22;;;;;;;11.53;8.87;;;12.70;58.20;;;;;;4971041;28;20711;-63
2024/01/06 00:28:49;;;;;;;12.33;9.20;;;12.70;58.40;;;;;;4971418;28;20187;-64
2024/01/06 00:31:16;;;;;;;9.50;8.43;;;12.70;58.60;;;;;;4967889;28;20659;-64
2024/01/06 00:33:42;;;;;;;10.20;8.33;;;12.60;58.70;;;;;;4968811;28;20509;-64
2024/01/06 00:36:08;;;;;;;11.13;8.30;;;12.60;59.00;;;;;;4972431;28;20458;-64
2024/01/06 00:38:35;;;;;;;8.03;7.20;;;12.60;59.00;;;;;;4968547;28;20195;-64
2024/01/06 00:41:01;;;;;;;10.23;6.93;;;12.60;59.00;;;;;;4968964;28;20462;-66
2024/01/06 00:43:26;;;;;;;8.30;6.30;;;12.60;59.00;;;;;;4967066;28;20450;-64
2024/01/06 00:45:52;;;;;;;8.77;6.30;;;12.50;58.90;;;;;;4964950;28;20458;-63
2024/01/06 00:48:17;;;;;;;7.70;6.70;;;12.50;58.90;;;;;;4968237;28;20183;-63
2024/01/06 00:50:43;;;;;;;9.70;6.83;;;12.50;58.80;;;;;;4968220;28;20599;-64
2024/01/06 00:53:09;;;;;;;8.00;6.50;;;12.60;58.80;;;;;;4969677;28;20578;-64
2024/01/06 00:55:34;;;;;;;10.23;6.90;;;12.50;58.70;;;;;;4967848;28;20285;-64
2024/01/06 00:58:00;;;;;;;10.23;5.97;;;12.50;58.70;;;;;;4968851;28;20206;-64
2024/01/06 01:00:27;;;;;;;9.67;6.50;;;12.50;58.80;;;;;;4969021;28;20187;-62
2024/01/06 01:02:52;;;;;;;6.93;5.73;;;12.50;58.80;;;;;;4969531;28;20266;-64
2024/01/06 01:05:18;;;;;;;7.17;5.90;;;12.50;58.80;;;;;;4967448;28;20900;-63
2024/01/06 01:07:44;;;;;;;10.83;6.10;;;12.50;58.80;;;;;;4968881;28;20206;-63
2024/01/06 01:10:09;;;;;;;7.17;5.80;;;12.40;58.70;;;;;;4968786;28;20201;-64
2024/01/06 01:12:35;;;;;;;6.60;6.00;;;12.50;58.50;;;;;;4969011;28;20211;-64
2024/01/06 01:15:01;;;;;;;13.67;5.33;;;12.50;58.50;;;;;;4968482;28;20269;-64
2024/01/06 01:17:26;;;;;;;9.07;5.20;;;12.50;58.60;;;;;;4968362;28;20191;-63
2024/01/06 01:19:52;;;;;;;5.10;4.57;;;12.50;58.40;;;;;;4968845;28;20198;-65
2024/01/06 01:22:17;;;;;;;9.43;5.20;;;12.50;58.30;;;;;;4968784;28;20592;-64
2024/01/06 01:24:43;;;;;;;9.17;5.10;;;12.50;58.40;;;;;;4967955;28;20675;-64
2024/01/06 01:27:09;;;;;;;6.30;4.80;;;12.50;58.30;;;;;;4966748;28;20222;-64
2024/01/06 01:29:35;;;;;;;8.03;4.70;;;12.50;58.20;;;;;;4968060;28;20187;-63
2024/01/06 01:32:01;;;;;;;5.37;4.00;;;12.50;58.10;;;;;;4966847;28;20439;-64
2024/01/06 01:34:26;;;;;;;7.80;3.87;;;12.50;58.10;;;;;;4969168;28;21265;-63
2024/01/06 01:36:52;;;;;;;6.63;4.27;;;12.50;58.10;;;;;;4967175;28;20725;-64
2024/01/06 01:39:17;;;;;;;5.97;3.97;;;12.40;58.00;;;;;;4968117;28;20187;-64
2024/01/06 01:41:43;;;;;;;4.30;3.83;;;12.40;58.00;;;;;;4966709;28;20624;-64
2024/01/06 01:44:08;;;;;;;5.53;3.93;;;12.40;58.00;;;;;;4967206;28;20200;-64
2024/01/06 01:46:34;;;;;;;6.30;4.20;;;12.40;58.00;;;;;;4966747;28;20597;-64
2024/01/06 01:49:02;;;;;;;7.73;3.67;;;12.40;57.90;;;;;;4965850;28;20195;-64
2024/01/06 01:51:30;;;;;;;6.30;4.30;;;12.40;57.80;;;;;;4967041;28;20187;-63
2024/01/06 01:53:57;;;;;;;5.20;4.00;;;12.50;57.80;;;;;;4970380;28;20485;-64
2024/01/06 01:56:24;;;;;;;6.37;3.90;;;12.40;57.70;;;;;;4967959;28;20836;-64
2024/01/06 01:58:49;;;;;;;7.87;4.80;;;12.40;57.60;;;;;;4967410;28;20450;-63
2024/01/06 02:01:15;;;;;;;7.03;4.63;;;12.50;57.60;;;;;;4968591;28;20470;-64
2024/01/06 02:03:44;;;;;;;6.77;4.43;;;12.40;57.80;;;;;;4968243;28;20253;-64
2024/01/06 02:06:11;;;;;;;5.63;4.00;;;12.40;57.70;;;;;;4967186;28;20450;-64
2024/01/06 02:08:37;;;;;;;5.60;3.43;;;12.30;57.90;;;;;;4963678;28;20454;-63
2024/01/06 02:11:03;;;;;;;6.23;3.70;;;12.30;57.90;;;;;;4963472;28;20999;-63
2024/01/06 02:13:36;;;;;;;4.50;3.40;;;12.30;57.70;;;;;;4966757;28;20470;-64
2024/01/06 02:16:05;;;;;;;6.40;2.90;;;12.30;57.90;;;;;;4965638;28;20964;-63
2024/01/06 02:18:32;;;;;;;6.77;3.23;;;12.30;57.70;;;;;;4967776;28;20589;-64
2024/01/06 02:21:02;;;;;;;5.17;3.00;;;12.30;57.60;;;;;;4965316;28;20445;-64
2024/01/06 02:23:30;;;;;;;4.40;2.50;;;12.40;57.60;;;;;;4967250;28;20446;-64
2024/01/06 02:25:56;;;;;;;4.17;3.20;;;12.30;57.40;;;;;;4964571;28;20885;-64
2024/01/06 02:28:22;;;;;;;3.43;2.60;;;12.30;57.50;;;;;;4965268;28;20446;-63
2024/01/06 02:30:49;;;;;;;4.13;2.53;;;12.30;57.50;;;;;;4968350;28;20442;-65
2024/01/06 02:33:14;;;;;;;6.90;3.20;;;12.40;57.40;;;;;;4966643;28;20309;-64
2024/01/06 02:35:40;;;;;;;5.47;3.20;;;12.40;57.30;;;;;;4967072;28;20954;-63
2024/01/06 02:38:06;;;;;;;3.23;2.40;;;12.40;57.20;;;;;;4969735;28;20194;-63
2024/01/06 02:40:32;;;;;;;5.07;3.10;;;12.30;57.20;;;;;;4971048;28;20183;-64
2024/01/06 02:42:58;;;;;;;6.17;2.80;;;12.30;57.40;;;;;;4973277;28;20941;-64
2024/01/06 02:45:24;;;;;;;3.63;2.70;;;12.30;57.50;;;;;;4969548;28;20678;-63
2024/01/06 02:47:50;;;;;;;7.27;2.87;;;12.30;57.30;;;;;;4972895;28;20470;-64
2024/01/06 02:50:15;;;;;;;3.67;2.73;;;12.30;57.30;;;;;;4967974;28;20660;-63
2024/01/06 02:52:41;;;;;;;7.60;2.83;;;12.30;57.30;;;;;;4970010;28;20179;-64
2024/01/06 02:55:07;;;;;;;2.90;2.60;;;12.30;57.40;;;;;;4970464;28;21034;-64
2024/01/06 02:57:32;;;;;;;3.33;2.67;;;12.30;57.30;;;;;;4970629;28;20198;-63
2024/01/06 02:59:58;;;;;;;8.20;3.27;;;12.30;57.30;;;;;;4973479;28;20342;-64
2024/01/06 03:02:24;;;;;;;3.50;2.63;;;12.30;57.30;;;;;;4970204;28;20567;-63
2024/01/06 03:04:49;;;;;;;4.33;3.30;;;12.30;57.40;;;;;;4970306;28;20194;-63
2024/01/06 03:07:15;;;;;;;6.70;2.87;;;12.30;57.50;;;;;;4968933;28;20239;-64
2024/01/06 03:09:41;;;;;;;3.00;2.07;;;12.30;57.40;;;;;;4970265;28;20725;-64
2024/01/06 03:12:07;;;;;;;5.97;2.50;;;12.30;57.40;;;;;;4971342;28;20234;-64
2024/01/06 03:14:34;;;;;;;3.43;2.30;;;12.30;57.30;;;;;;4970796;28;20234;-64
2024/01/06 03:17:00;;;;;;;5.37;2.60;;;12.30;57.00;;;;;;4969866;28;20482;-64
2024/01/06 03:19:27;;;;;;;4.03;2.40;;;12.30;56.90;;;;;;4970680;28;20466;-63
2024/01/06 03:21:53;;;;;;;3.13;2.23;;;12.20;56.70;;;;;;4969104;28;20194;-64
2024/01/06 03:24:18;;;;;;;3.60;2.03;;;12.20;56.70;;;;;;4970393;28;20443;-64
2024/01/06 03:26:44;;;;;;;2.63;2.03;;;12.20;56.70;;;;;;4969346;28;20686;-64
2024/01/06 03:29:10;;;;;;;5.90;2.70;;;12.20;56.50;;;;;;4970425;28;20439;-63
2024/01/06 03:31:35;;;;;;;3.57;1.80;;;12.20;56.60;;;;;;4969338;28;20747;-63
2024/01/06 03:34:01;;;;;;;3.53;1.93;;;12.10;56.40;;;;;;4969593;28;20784;-64
2024/01/06 03:36:26;;;;;;;3.60;1.33;;;12.10;56.50;;;;;;4969635;28;20584;-63
2024/01/06 03:38:52;;;;;;;3.90;2.37;;;12.10;56.30;;;;;;4969147;28;20189;-63
2024/01/06 03:41:17;;;;;;;5.70;2.00;;;12.10;56.20;;;;;;4970309;28;20249;-64
2024/01/06 03:43:43;;;;;;;2.13;1.93;;;12.10;56.20;;;;;;4970811;28;20207;-63
2024/01/06 03:46:08;;;;;;;3.03;1.90;;;12.10;56.10;;;;;;4967325;28;20224;-63
2024/01/06 03:48:34;;;;;;;3.40;1.67;;;12.20;56.10;;;;;;4967736;28;20205;-63
2024/01/06 03:51:01;;;;;;;2.40;1.77;;;12.20;56.00;;;;;;4970291;28;20254;-64
2024/01/06 03:53:27;;;;;;;4.50;2.33;;;12.20;56.00;;;;;;4968289;28;20215;-63
2024/01/06 03:55:52;;;;;;;2.80;1.50;;;12.20;56.00;;;;;;4967000;28;20473;-63
2024/01/06 03:58:18;;;;;;;3.83;1.60;;;12.20;56.00;;;;;;4967993;28;20210;-64
2024/01/06 04:00:43;;;;;;;5.73;2.00;;;12.20;56.00;;;;;;4970424;28;20278;-64
2024/01/06 04:03:09;;;;;;;2.20;1.70;;;12.10;56.10;;;;;;4970368;28;20195;-64
2024/01/06 04:05:34;;;;;;;3.17;1.80;;;12.00;56.10;;;;;;4967739;28;20239;-64
2024/01/06 04:08:00;;;;;;;2.90;1.90;;;12.00;56.30;;;;;;4969256;28;20973;-64
2024/01/06 04:10:26;;;;;;;2.67;1.83;;;12.00;56.30;;;;;;4969142;28;20236;-64
2024/01/06 04:12:51;;;;;;;2.43;1.77;;;12.00;56.00;;;;;;4969949;28;20187;-64
2024/01/06 04:15:17;;;;;;;3.00;2.07;;;12.10;56.00;;;;;;4967623;28;20298;-64
2024/01/06 04:17:42;;;;;;;3.80;1.80;;;12.10;55.80;;;;;;4968274;28;20210;-63
2024/01/06 04:20:12;;;;;;;3.43;1.60;;;12.10;55.70;;;;;;4968388;28;20202;-64
2024/01/06 04:22:38;;;;;;;3.30;1.40;;;12.00;55.40;;;;;;4969414;28;20222;-64
2024/01/06 04:25:03;;;;;;;2.70;1.93;;;11.90;55.80;;;;;;4968452;28;21320;-63
2024/01/06 04:27:29;;;;;;;2.20;2.00;;;11.90;55.90;;;;;;4966966;28;20575;-64
2024/01/06 04:29:55;;;;;;;3.17;1.73;;;11.90;55.70;;;;;;4968992;28;20477;-63
2024/01/06 04:32:20;;;;;;;3.33;1.90;;;12.00;55.70;;;;;;4969200;28;20183;-63
2024/01/06 04:34:46;;;;;;;4.37;1.90;;;12.00;55.60;;;;;;4968254;28;20306;-64
2024/01/06 04:37:11;;;;;;;4.47;2.00;;;12.00;55.60;;;;;;4967320;28;20226;-63
2024/01/06 04:39:37;;;;;;;3.83;1.57;;;12.00;55.40;;;;;;4968873;28;20192;-64
2024/01/06 04:42:03;;;;;;;3.33;1.70;;;12.10;55.30;;;;;;4967579;28;20191;-62
2024/01/06 04:44:29;;;;;;;4.13;1.83;;;12.10;55.30;;;;;;4968038;28;20192;-64
2024/01/06 04:46:54;;;;;;;1.60;1.30;;;12.10;55.30;;;;;;4967486;28;20238;-63
2024/01/06 04:49:20;;;;;;;6.90;2.03;;;12.10;55.20;;;;;;4969434;28;20201;-64
2024/01/06 04:51:45;;;;;;;2.60;1.47;;;12.10;55.20;;;;;;4967582;28;20242;-64
2024/01/06 04:54:11;;;;;;;3.67;1.80;;;12.10;55.20;;;;;;4968748;28;20215;-63
2024/01/06 04:56:36;;;;;;;3.97;1.70;;;12.10;55.20;;;;;;4967049;28;20257;-63
2024/01/06 04:59:02;;;;;;;6.27;1.80;;;12.10;55.20;;;;;;4969515;28;20187;-63
2024/01/06 05:01:27;;;;;;;2.40;2.10;;;12.10;55.40;;;;;;4970907;28;20191;-64
2024/01/06 05:03:53;;;;;;;5.80;2.23;;;12.00;55.40;;;;;;4967901;28;20187;-64
2024/01/06 05:06:19;;;;;;;5.83;2.83;;;12.00;55.30;;;;;;4967866;28;20207;-64
2024/01/06 05:08:45;;;;;;;3.13;1.87;;;12.00;55.30;;;;;;4969115;28;20215;-63
2024/01/06 05:11:12;;;;;;;3.90;1.80;;;12.00;55.30;;;;;;4968478;28;20237;-64
2024/01/06 05:13:37;;;;;;;4.23;1.70;;;11.90;55.10;;;;;;4968492;28;20512;-63
2024/01/06 05:16:03;;;;;;;3.07;1.93;;;11.80;55.20;;;;;;4966855;28;20459;-63
2024/01/06 05:18:29;;;;;;;3.60;1.93;;;11.90;55.40;;;;;;4966920;28;20187;-64
2024/01/06 05:20:55;;;;;;;5.60;2.10;;;11.90;55.20;;;;;;4968057;28;20460;-63
2024/01/06 05:23:20;;;;;;;6.17;2.53;;;11.90;55.10;;;;;;4969529;28;20658;-64
2024/01/06 05:25:46;;;;;;;5.80;1.80;;;12.00;55.10;;;;;;4967262;28;20524;-64
2024/01/06 05:28:12;;;;;;;2.83;1.30;;;12.00;55.10;;;;;;4968026;28;20191;-64
2024/01/06 05:30:37;;;;;;;6.20;1.87;;;12.00;55.00;;;;;;4967474;28;20198;-64
2024/01/06 05:33:03;;;;;;;2.67;1.93;;;12.00;54.90;;;;;;4967804;28;20790;-64
2024/01/06 05:35:29;;;;;;;2.83;1.90;;;12.00;55.00;;;;;;4967936;28;20246;-64
2024/01/06 05:37:55;;;;;;;2.03;1.70;;;12.00;55.10;;;;;;4968176;28;20454;-63
2024/01/06 05:40:21;;;;;;;2.10;1.60;;;12.00;55.40;;;;;;4968037;28;20198;-64
2024/01/06 05:42:46;;;;;;;5.43;1.57;;;12.00;55.30;;;;;;4968341;28;20446;-64
2024/01/06 05:45:15;;;;;;;5.23;1.63;;;12.00;55.20;;;;;;4969064;28;20191;-63
2024/01/06 05:47:40;;;;;;;3.20;1.70;;;12.00;55.20;;;;;;4967559;28;20199;-64
2024/01/06 05:50:10;;;;;;;2.30;1.40;;;12.00;55.30;;;;;;4974280;28;20447;-64
2024/01/06 05:52:35;;;;;;;5.53;1.93;;;11.90;55.20;;;;;;4970030;28;20282;-63
2024/01/06 05:55:01;;;;;;;3.03;1.30;;;12.00;55.30;;;;;;4966125;28;21064;-63
2024/01/06 05:57:26;;;;;;;3.03;1.70;;;12.00;55.20;;;;;;4965589;28;20198;-64
2024/01/06 05:59:52;;;;;;;3.60;1.53;;;12.00;55.20;;;;;;4972204;28;20191;-64
2024/01/06 06:02:17;;;;;;;3.20;1.70;;;11.90;55.30;;;;;;4966719;28;20215;-63
2024/01/06 06:04:43;;;;;;;2.93;1.73;;;11.90;55.40;;;;;;4969133;28;20237;-63
2024/01/06 06:07:09;;;;;;;2.17;1.60;;;11.90;55.20;;;;;;4965879;28;20211;-64
2024/01/06 06:09:34;;;;;;;2.57;1.37;;;11.90;55.20;;;;;;4968146;28;21129;-64
2024/01/06 06:12:00;;;;;;;6.43;1.97;;;11.90;55.20;;;;;;4974503;28;20203;-63
2024/01/06 06:14:26;;;;;;;2.70;1.47;;;11.90;55.30;;;;;;4971003;28;20211;-64
2024/01/06 06:16:51;;;;;;;2.23;1.90;;;12.00;55.30;;;;;;4970528;28;20951;-64
2024/01/06 06:19:18;;;;;;;4.63;2.30;;;12.00;55.40;;;;;;4968640;28;20307;-64
2024/01/06 06:21:44;;;;;;;3.63;2.27;;;12.00;55.40;;;;;;4970938;28;21046;-62
2024/01/06 06:24:09;;;;;;;2.53;2.00;;;12.00;55.80;;;;;;4972108;28;20258;-62
2024/01/06 06:26:35;;;;;;;3.27;1.60;;;12.10;55.90;;;;;;4970628;28;20848;-63
2024/01/06 06:29:01;;;;;;;3.80;1.90;;;12.20;55.30;;;;;;4971529;28;20290;-63
2024/01/06 06:31:26;;;;;;;4.57;2.43;;;12.30;54.90;;;;;;4971129;28;20673;-63
2024/01/06 06:33:52;;;;;;;3.53;1.93;;;12.40;54.50;;;;;;4970911;28;20219;-63
2024/01/06 06:36:18;;;;;;;3.00;1.70;;;12.50;54.30;;;;;;4966704;28;20206;-63
2024/01/06 06:38:43;;;;;;;3.03;1.90;;;12.50;54.30;;;;;;4970296;28;20659;-63
2024/01/06 06:41:09;;;;;;;2.03;1.63;;;12.50;54.20;;;;;;4970873;28;20195;-63
2024/01/06 06:43:34;;;;;;;3.10;1.80;;;12.60;54.30;;;;;;4972997;28;20191;-63
2024/01/06 06:46:00;;;;;;;5.40;2.20;;;12.70;54.20;;;;;;4969711;28;20215;-63
2024/01/06 06:48:26;;;;;;;3.07;1.83;;;12.70;54.00;;;;;;4965916;28;20198;-63
2024/01/06 06:50:51;;;;;;;4.50;1.63;;;12.80;53.80;;;;;;4970056;28;20266;-64
2024/01/06 06:53:17;;;;;;;3.70;1.93;;;12.90;53.60;;;;;;4970417;28;20218;-63
2024/01/06 06:55:42;;;;;;;6.30;2.27;;;12.90;53.50;;;;;;4969161;28;20690;-63
2024/01/06 06:58:08;;;;;;;3.60;2.07;;;12.90;53.50;;;;;;4970755;28;20191;-63
2024/01/06 07:00:34;;;;;;;3.90;2.53;;;12.90;53.80;;;;;;4971387;28;20195;-63
2024/01/06 07:03:00;;;;;;;8.03;2.87;;;12.90;53.50;;;;;;4968483;28;20214;-63
2024/01/06 07:05:26;;;;;;;5.80;2.80;;;13.00;53.60;;;;;;4970129;28;20910;-63
2024/01/06 07:07:51;;;;;;;3.70;2.07;;;13.00;53.60;;;;;;4970131;28;20183;-63
2024/01/06 07:10:17;;;;;;;4.67;2.80;;;13.10;53.60;;;;;;4972344;28;20211;-63
2024/01/06 07:12:43;;;;;;;4.53;2.90;;;13.20;53.70;;;;;;4971199;28;20195;-63
2024/01/06 07:15:10;;;;;;;6.90;2.63;;;13.20;53.50;;;;;;4966512;28;20487;-64
2024/01/06 07:17:36;;;;;;;3.50;1.93;;;13.20;53.30;;;;;;4970770;28;20195;-63
2024/01/06 07:20:02;;;;;;;2.70;2.17;;;13.20;53.20;;;;;;4967103;28;20464;-63
2024/01/06 07:22:27;;;;;;;3.57;1.87;;;13.10;53.00;;;;;;4968716;28;20784;-64
2024/01/06 07:24:53;;;;;;;2.63;2.10;;;13.10;53.00;;;;;;4970395;28;20446;-62
2024/01/06 07:27:19;;;;;;;3.40;2.30;;;13.10;53.00;;;;;;4969993;28;20686;-63
2024/01/06 07:29:45;;;;;;;2.20;2.00;;;13.10;53.00;;;;;;4968319;28;20364;-63
2024/01/06 07:32:10;;;;;;;4.23;2.40;;;13.20;53.20;;;;;;4970336;28;20961;-62
2024/01/06 07:34:36;;;;;;;5.73;2.70;;;13.20;53.00;;;;;;4968987;28;20708;-63
2024/01/06 07:37:02;;;;;;;7.03;2.40;;;13.30;52.80;;;;;;4968332;28;20211;-63
2024/01/06 07:39:27;;;;;;;2.63;2.20;;;13.30;52.80;;;;;;4971557;28;20279;-63
2024/01/06 07:41:53;;;;;;;3.50;2.17;;;13.20;52.60;;;;;;4971793;28;20402;-63
2024/01/06 07:44:24;;;;;;;4.77;1.87;;;13.20;52.70;;;;;;4971969;28;20202;-62
2024/01/06 07:46:53;;;;;;;3.90;2.30;;;13.20;52.80;;;;;;4969626;28;20241;-63
2024/01/06 07:49:18;;;;;;;2.20;1.97;;;13.20;52.70;;;;;;4971666;28;20426;-63
2024/01/06 07:51:44;;;;;;;2.27;2.00;;;13.10;52.60;;;;;;4970596;28;20521;-63
2024/01/06 07:54:11;;;;;;;2.30;2.10;;;13.10;52.60;;;;;;4970675;28;20241;-63
2024/01/06 07:56:37;;;;;;;4.93;2.80;;;13.10;52.70;;;;;;4969391;28;20219;-63
2024/01/06 07:59:03;;;;;;;3.90;2.20;;;13.10;52.70;;;;;;4970536;28;20439;-64
2024/01/06 08:01:28;;;;;;;3.23;2.10;;;13.20;52.60;;;;;;4971210;28;20730;-63
2024/01/06 08:03:54;;;;;;;6.10;2.77;;;13.20;52.40;;;;;;4971311;28;20790;-63
2024/01/06 08:06:19;;;;;;;2.33;2.07;;;13.30;52.70;;;;;;4969077;28;20657;-62
2024/01/06 08:08:45;;;;;;;4.77;2.50;;;13.30;52.10;;;;;;4968681;28;20633;-63
2024/01/06 08:11:11;;;;;;;6.60;3.10;;;13.40;52.20;;;;;;4970727;28;20187;-63
2024/01/06 08:13:37;;;;;;;8.40;7.60;;;13.30;53.00;;;;;;4970914;28;20516;-64
2024/01/06 08:16:04;;;;;;;10.40;7.07;;;13.30;53.10;;;;;;4970383;28;20439;-63
2024/01/06 08:18:29;;;;;;;6.77;5.10;;;13.40;53.00;;;;;;4969596;28;20447;-62
2024/01/06 08:20:55;;;;;;;9.50;5.30;;;13.40;52.60;;;;;;4968312;28;20485;-63
2024/01/06 08:23:21;;;;;;;8.13;6.23;;;13.40;52.30;;;;;;4968731;28;20183;-63
2024/01/06 08:25:46;;;;;;;5.60;4.70;;;13.40;52.50;;;;;;4970064;28;20214;-63
2024/01/06 08:28:14;;;;;;;4.97;4.23;;;13.50;52.70;;;;;;4970616;28;20215;-63
2024/01/06 08:30:40;;;;;;;9.13;4.43;;;13.50;52.40;;;;;;4970745;28;20187;-62
2024/01/06 08:33:06;;;;;;;8.23;5.47;;;13.50;52.30;;;;;;4969769;28;20756;-62
2024/01/06 08:35:31;;;;;;;4.97;3.97;;;13.50;52.30;;;;;;4968175;28;20517;-63
2024/01/06 08:37:57;;;;;;;4.97;3.73;;;13.40;52.40;;;;;;4969913;28;20190;-63
2024/01/06 08:40:22;;;;;;;4.97;3.20;;;13.40;52.70;;;;;;4970379;28;20187;-64
2024/01/06 08:42:48;;;;;;;7.57;3.23;;;13.40;53.20;;;;;;4969663;28;20195;-63
2024/01/06 08:45:14;;;;;;;3.63;3.00;;;13.40;53.30;;;;;;4969324;28;21014;-63
2024/01/06 08:47:40;;;;;;;4.90;2.43;;;13.40;53.10;;;;;;4969740;28;20439;-63
2024/01/06 08:50:06;;;;;;;5.23;3.07;;;13.40;53.30;;;;;;4969096;28;20198;-63
2024/01/06 08:52:32;;;;;;;6.13;3.57;;;13.50;53.40;;;;;;4970278;28;20187;-63
2024/01/06 08:54:57;;;;;;;5.50;3.50;;;13.50;53.00;;;;;;4968893;28;21036;-64
2024/01/06 08:57:23;;;;;;;6.60;3.97;;;13.60;52.70;;;;;;4970013;28;20733;-64
2024/01/06 08:59:48;;;;;;;4.23;3.33;;;13.60;52.60;;;;;;4968562;28;20191;-63
2024/01/06 09:02:14;;;;;;;3.97;2.67;;;13.60;52.60;;;;;;4969912;28;20195;-63
2024/01/06 09:04:39;;;;;;;4.40;2.80;;;13.60;52.70;;;;;;4969096;28;20226;-63
2024/01/06 09:07:05;;;;;;;4.30;2.93;;;13.60;52.60;;;;;;4969207;28;20637;-64
2024/01/06 09:09:31;;;;;;;6.23;2.80;;;13.50;52.50;;;;;;4968893;28;20188;-63
2024/01/06 09:11:56;;;;;;;4.17;3.20;;;13.50;52.50;;;;;;4968714;28;20434;-64
2024/01/06 09:14:22;;;;;;;4.60;2.83;;;13.50;52.70;;;;;;4969923;28;20219;-63
2024/01/06 09:16:48;;;;;;;5.77;2.83;;;13.50;52.80;;;;;;4968846;28;20585;-64
2024/01/06 09:19:13;;;;;;;5.80;2.80;;;13.50;52.80;;;;;;4967004;28;20211;-63
2024/01/06 09:21:39;;;;;;;4.90;2.70;;;13.50;52.50;;;;;;4968777;28;20549;-64
2024/01/06 09:24:06;;;;;;;3.50;2.60;;;13.50;52.20;;;;;;4970011;28;20187;-62
2024/01/06 09:26:34;;;;;;;4.10;3.13;;;13.50;52.60;;;;;;4968453;28;20703;-63
2024/01/06 09:29:01;;;;;;;3.47;3.17;;;13.50;52.90;;;;;;4968128;28;20449;-63
2024/01/06 09:31:27;;;;;;;5.33;2.50;;;13.50;53.10;;;;;;4963851;28;20487;-62
2024/01/06 09:33:52;;;;;;;4.80;2.97;;;13.70;53.20;;;;;;4963042;28;20573;-63
2024/01/06 09:36:18;;;;;;;4.97;3.00;;;13.60;53.10;;;;;;4965171;28;20207;-64
2024/01/06 09:38:44;;;;;;;3.43;2.60;;;13.60;53.10;;;;;;4965778;28;20210;-64
2024/01/06 09:41:09;;;;;;;4.73;2.80;;;13.50;52.70;;;;;;4965064;28;20191;-63
2024/01/06 09:43:36;;;;;;;3.20;2.90;;;13.40;52.80;;;;;;4964313;28;20198;-62
2024/01/06 09:46:17;;;;;;;3.77;3.13;;;13.20;52.70;;;;;;4961385;28;20247;-63
2024/01/06 09:48:45;;;;;;;3.70;3.10;;;13.10;53.20;;;;;;4971839;28;20517;-64
2024/01/06 09:51:11;;;;;;;3.80;3.50;;;12.90;53.40;;;;;;4973360;28;20454;-63
2024/01/06 09:53:46;;;;;;;3.37;2.80;;;13.00;53.70;;;;;;4972104;28;21107;-63
2024/01/06 09:56:13;;;;;;;3.73;2.83;;;12.90;53.50;;;;;;4967656;28;20819;-63
2024/01/06 09:58:39;;;;;;;3.93;3.20;;;13.00;53.50;;;;;;4969571;28;20973;-63
2024/01/06 10:01:06;;;;;;;5.53;3.30;;;13.10;53.50;;;;;;4972498;28;20429;-63
2024/01/06 10:03:34;;;;;;;3.60;3.30;;;13.10;53.30;;;;;;4972934;28;20430;-63
2024/01/06 10:06:03;;;;;;;2.63;2.00;;;13.10;53.40;;;;;;4971987;28;20473;-64
2024/01/06 10:08:29;;;;;;;2.40;2.20;;;12.90;53.50;;;;;;4971566;28;20442;-63
2024/01/06 10:10:54;;;;;;;2.70;2.40;;;12.60;53.90;;;;;;4971304;28;20469;-62
2024/01/06 10:13:20;;;;;;;4.00;2.10;;;12.80;54.30;;;;;;4972607;28;20427;-62
2024/01/06 10:15:46;;;;;;;2.50;2.30;;;12.70;55.00;;;;;;4969532;28;20219;-64
2024/01/06 10:18:12;;;;;;;2.77;2.57;;;12.70;54.80;;;;;;4971735;28;20367;-62
2024/01/06 10:20:38;;;;;;;3.83;3.53;;;12.60;54.70;;;;;;4969506;28;20199;-63
2024/01/06 10:23:07;;;;;;;2.20;2.03;;;12.20;55.40;;;;;;4971786;28;21267;-63
2024/01/06 10:25:32;;;;;;;4.17;3.77;;;12.30;55.50;;;;;;4964397;28;20722;-63
2024/01/06 10:28:01;;;;;;;2.30;2.10;;;12.40;55.60;;;;;;4969370;28;20450;-63
2024/01/06 10:30:27;;;;;;;2.40;2.20;;;12.60;55.40;;;;;;4972791;28;20187;-63
2024/01/06 10:32:53;;;;;;;2.30;2.07;;;12.60;55.10;;;;;;4968382;28;20461;-63
2024/01/06 10:35:19;;;;;;;2.57;2.33;;;12.60;55.20;;;;;;4969014;28;20231;-64
2024/01/06 10:37:45;;;;;;;3.50;2.27;;;12.60;55.40;;;;;;4971070;28;20798;-63
2024/01/06 10:40:13;;;;;;;2.37;2.17;;;12.70;55.50;;;;;;4966246;28;20194;-64
2024/01/06 10:42:40;;;;;;;2.70;2.50;;;12.80;55.30;;;;;;4965905;28;20509;-62
2024/01/06 10:45:10;;;;;;;2.40;2.20;;;12.90;55.90;;;;;;4971268;28;20435;-64
2024/01/06 10:47:37;;;;;;;2.20;1.97;;;12.80;55.50;;;;;;4971523;28;20824;-63
2024/01/06 10:50:04;;;;;;;2.57;2.37;;;12.80;55.50;;;;;;4971479;28;20435;-63
2024/01/06 10:52:30;;;;;;;2.77;2.30;;;12.90;55.40;;;;;;4971136;28;20835;-64
2024/01/06 10:54:56;;;;;;;3.90;2.80;;;12.90;55.70;;;;;;4969712;28;20508;-62
2024/01/06 10:57:23;;;;;;;2.60;2.40;;;12.80;55.90;;;;;;4966211;28;20470;-63
2024/01/06 10:59:52;;;;;;;3.50;3.03;;;12.90;56.10;;;;;;4967298;28;20450;-64
2024/01/06 11:02:18;;;;;;;2.87;2.67;;;12.90;56.10;;;;;;4966415;28;20970;-63
2024/01/06 11:04:48;;;;;;;3.80;2.80;;;12.80;56.00;;;;;;4967754;28;20454;-63
2024/01/06 11:07:17;;;;;;;4.83;2.60;;;12.90;56.30;;;;;;4969850;28;20210;-63
2024/01/06 11:09:59;;;;;;;2.73;2.43;;;12.80;56.30;;;;;;4971218;28;20529;-63
2024/01/06 11:12:26;;;;;;;3.70;2.80;;;12.80;56.60;;;;;;4972441;28;20426;-63
2024/01/06 11:14:52;;;;;;;2.70;2.50;;;12.80;57.20;;;;;;4968646;28;20494;-63
2024/01/06 11:17:50;;;;;;;3.30;3.03;;;12.70;56.90;;;;;;4971469;28;20516;-63
2024/01/06 11:20:16;;;;;;;3.10;2.57;;;12.70;57.30;;;;;;4966972;28;20238;-63
2024/01/06 11:22:42;;;;;;;3.00;2.80;;;12.70;57.40;;;;;;4967342;28;20446;-62
2024/01/06 11:25:13;;;;;;;4.37;3.00;;;12.70;57.40;;;;;;4965062;28;20446;-63
2024/01/06 11:27:38;;;;;;;2.80;2.60;;;12.70;57.40;;;;;;4969243;28;20559;-62
2024/01/06 11:30:05;;;;;;;2.87;2.67;;;12.80;57.60;;;;;;4971603;28;20433;-63
2024/01/06 11:32:38;;;;;;;3.80;3.10;;;12.80;57.60;;;;;;4966186;28;20203;-63
2024/01/06 11:35:09;;;;;;;3.43;3.13;;;12.80;57.60;;;;;;4967093;28;20493;-63
2024/01/06 11:37:38;;;;;;;3.30;3.00;;;12.80;57.60;;;;;;4970350;28;20447;-63
2024/01/06 11:40:09;;;;;;;3.80;3.50;;;12.80;57.70;;;;;;4958176;28;20438;-62
2024/01/06 11:42:35;;;;;;;3.70;3.10;;;12.60;57.80;;;;;;4966039;28;20954;-62
2024/01/06 11:45:07;;;;;;;3.33;3.00;;;12.30;58.40;;;;;;4966647;28;20442;-63
2024/01/06 11:47:38;;;;;;;4.30;4.00;;;12.30;58.80;;;;;;4968795;28;20954;-62
2024/01/06 11:50:04;;;;;;;3.43;3.13;;;12.40;58.70;;;;;;4966386;28;20486;-62
2024/01/06 11:52:34;;;;;;;4.37;3.97;;;12.30;58.70;;;;;;4970331;28;20441;-63
2024/01/06 11:55:00;;;;;;;3.30;3.10;;;12.20;58.70;;;;;;4967163;28;20518;-63
2024/01/06 11:57:27;;;;;;;3.70;3.40;;;12.20;58.90;;;;;;4970787;28;20423;-63
2024/01/06 11:59:53;;;;;;;4.13;3.73;;;12.40;58.70;;;;;;4967868;28;20501;-63
2024/01/06 12:02:19;;;;;;;4.50;3.40;;;12.40;58.60;;;;;;4967264;28;20530;-64
2024/01/06 12:04:52;;;;;;;4.70;3.70;;;12.50;58.50;;;;;;4966781;28;20195;-63
2024/01/06 12:07:19;;;;;;;3.97;3.60;;;12.40;58.50;;;;;;4961413;28;20470;-63
2024/01/06 12:09:47;;;;;;;4.10;3.70;;;12.30;58.50;;;;;;4967192;28;20458;-62
2024/01/06 12:12:15;;;;;;;3.97;3.67;;;12.30;58.60;;;;;;4967674;28;20457;-63
2024/01/06 12:14:45;;;;;;;5.07;4.40;;;12.20;58.80;;;;;;4969892;28;20482;-62
2024/01/06 12:17:12;;;;;;;4.43;4.03;;;12.20;59.00;;;;;;4970212;28;21025;-64
2024/01/06 12:19:41;;;;;;;3.47;3.20;;;12.20;59.10;;;;;;4969304;28;20450;-63
2024/01/06 12:22:07;;;;;;;3.60;3.30;;;12.20;59.40;;;;;;4967692;28;20807;-63
2024/01/06 12:24:33;;;;;;;4.07;3.73;;;12.00;59.30;;;;;;4970127;28;20489;-63
2024/01/06 12:26:59;;;;;;;3.40;3.10;;;12.00;59.50;;;;;;4963849;28;20563;-63
2024/01/06 12:29:31;;;;;;;4.13;3.53;;;12.00;59.40;;;;;;4970208;28;20191;-63
2024/01/06 12:31:59;;;;;;;3.97;3.67;;;12.00;59.50;;;;;;4970869;28;21147;-63
2024/01/06 12:34:26;;;;;;;5.40;3.87;;;12.00;60.10;;;;;;4970508;28;20485;-62
2024/01/06 12:36:55;;;;;;;3.93;3.63;;;12.10;59.40;;;;;;4967268;28;20864;-63
2024/01/06 12:39:21;;;;;;;4.87;4.30;;;12.10;59.10;;;;;;4969867;28;20530;-63
2024/01/06 12:41:46;;;;;;;3.97;3.67;;;12.10;59.10;;;;;;4970252;28;20518;-63